Who's Online

We have 5 guests online

Aviation WX

[source: ADDS]
METAR
KIAD 291752Z 15009G14KT 10SM OVC090 00/M12 A3017 RMK AO2 SLP219 T00001122 10006 21094 58043 =
TAF
KIAD 291816Z 2918/3024 16010G14KT P6SM SCT050 OVC090 FM292100 16012KT 3SM -FZRASNPL BKN025 OVC050 FM300000 17008KT P6SM SCT025 BKN050 FM300600 23007KT P6SM BKN050 FM301200 31011KT P6SM BKN050 FM301400 31014G35KT P6SM BKN050 FM302200 31022G36KT P6SM SCT035 =
SR / SS: 01:58 / 12:11 UTC (Washington-Dulles 2015-01-29)

JoomlaWatch Agent

Home Products and Services

This section describes Multilink Systems products and services

 

 

Under construction Please Standby